Time;durP1;ratioP1;P1;durP2;ratioP2;P2;SDS_P1;SDS_P2;PMS_P1;PMS_P2;Temp;Humidity;BMP_temperature;BMP_pressure;BME280_temperature;BME280_humidity;BME280_pressure;Samples;Min_cycle;Max_cycle;Signal;HPM_P1;HPM_P2
2021/03/07 00:03:51;;;;;;;4.10;3.80;;;;;;;3.28;57.10;101238.78;10414718;28;20068;-65
2021/03/07 00:08:52;;;;;;;4.85;4.45;;;;;;;3.22;57.36;101236.03;10414662;28;20064;-65
2021/03/07 00:13:55;;;;;;;4.18;3.67;;;;;;;3.22;57.32;101224.78;10415572;28;20192;-66
2021/03/07 00:18:56;;;;;;;4.35;3.42;;;;;;;3.19;57.18;101224.75;10414543;28;20045;-65
2021/03/07 00:23:57;;;;;;;4.32;4.03;;;;;;;3.14;57.58;101218.56;10416146;28;20033;-66
2021/03/07 00:28:59;;;;;;;4.63;4.15;;;;;;;3.16;57.55;101209.09;10423366;28;20072;-63
2021/03/07 00:34:01;;;;;;;4.18;3.78;;;;;;;3.06;57.48;101195.09;10422954;28;20057;-65
2021/03/07 00:39:04;;;;;;;3.75;3.42;;;;;;;2.92;57.55;101181.84;10422032;28;20056;-65
2021/03/07 00:44:14;;;;;;;3.40;3.05;;;;;;;2.92;57.61;101184.47;10405644;28;20495;-65
2021/03/07 00:49:18;;;;;;;4.20;3.80;;;;;;;2.84;57.99;101174.78;10422190;28;20041;-65
2021/03/07 00:54:20;;;;;;;4.13;3.72;;;;;;;2.55;58.59;101172.50;10421603;28;20037;-65
2021/03/07 00:59:22;;;;;;;4.22;3.83;;;;;;;2.69;58.26;101167.56;10422185;28;20490;-66
2021/03/07 01:04:23;;;;;;;5.95;3.85;;;;;;;2.69;58.28;101165.84;10421551;28;20038;-66
2021/03/07 01:09:24;;;;;;;5.88;4.72;;;;;;;2.64;58.24;101156.22;10421320;28;20099;-65
2021/03/07 01:14:37;;;;;;;4.82;4.38;;;;;;;2.52;58.10;101141.28;10421163;28;20045;-65
2021/03/07 01:19:38;;;;;;;5.07;4.65;;;;;;;2.51;58.32;101140.41;10420636;28;20049;-66
2021/03/07 01:24:39;;;;;;;5.38;4.88;;;;;;;2.52;58.18;101129.22;10420534;28;20091;-65
2021/03/07 01:29:40;;;;;;;6.03;5.53;;;;;;;2.47;58.57;101116.97;10420653;28;20458;-65
2021/03/07 01:34:41;;;;;;;5.93;5.40;;;;;;;2.36;58.76;101113.31;10420182;28;20037;-65
2021/03/07 01:39:43;;;;;;;5.40;4.90;;;;;;;2.46;58.28;101097.94;10484233;22;20493;-68
2021/03/07 01:44:55;;;;;;;6.50;5.90;;;;;;;2.36;58.78;101084.78;10489406;28;20048;-68
2021/03/07 01:49:57;;;;;;;6.05;5.55;;;;;;;2.09;59.28;101077.34;10507005;28;20048;-68
2021/03/07 01:54:59;;;;;;;7.93;7.22;;;;;;;2.29;58.55;101065.63;10507886;28;20041;-69
2021/03/07 02:00:01;;;;;;;8.85;8.05;;;;;;;2.20;58.03;101068.03;10508137;28;20048;-68
2021/03/07 02:05:15;;;;;;;9.68;8.88;;;;;;;2.23;57.60;101057.72;10507995;28;20045;-68
2021/03/07 02:10:21;;;;;;;9.95;9.05;;;;;;;2.21;57.60;101056.81;10506049;28;20039;-67
2021/03/07 02:15:25;;;;;;;10.55;9.55;;;;;;;2.28;57.63;101053.50;10506063;28;20048;-68
2021/03/07 02:20:29;;;;;;;11.50;10.30;;;;;;;2.26;57.23;101050.88;10505694;28;20047;-68
2021/03/07 02:25:30;;;;;;;11.05;10.13;;;;;;;2.14;57.98;101052.38;10488015;28;20103;-68
2021/03/07 02:30:32;;;;;;;12.05;11.05;;;;;;;2.17;57.45;101042.03;10507052;28;20044;-68
2021/03/07 02:35:37;;;;;;;12.98;11.90;;;;;;;2.17;57.54;101044.63;10505375;28;20486;-67
2021/03/07 02:40:41;;;;;;;12.38;11.38;;;;;;;2.20;57.52;101042.09;10505067;28;20056;-69
2021/03/07 02:45:45;;;;;;;12.50;11.30;;;;;;;2.22;57.30;101037.84;10506436;28;20385;-68
2021/03/07 02:50:47;;;;;;;11.15;10.10;;;;;;;2.21;57.09;101028.28;10487087;28;20048;-68
2021/03/07 02:55:55;;;;;;;11.38;10.32;;;;;;;2.28;56.41;101023.22;10504843;28;20094;-69
2021/03/07 03:00:59;;;;;;;12.02;11.02;;;;;;;2.31;56.90;101009.47;10504882;28;20032;-67
2021/03/07 03:06:04;;;;;;;12.65;11.52;;;;;;;2.32;56.08;101013.78;10503325;28;20516;-67
2021/03/07 03:11:06;;;;;;;13.98;12.70;;;;;;;2.35;55.81;101003.47;10485416;28;20044;-68
2021/03/07 03:16:08;;;;;;;14.68;13.43;;;;;;;2.34;55.94;101008.63;10502359;28;20098;-68
2021/03/07 03:21:12;;;;;;;15.88;14.40;;;;;;;2.24;55.97;100998.09;10503590;28;20042;-68
2021/03/07 03:26:14;;;;;;;16.48;15.07;;;;;;;2.36;55.44;100991.38;10503352;28;20040;-68
2021/03/07 03:31:15;;;;;;;16.15;14.73;;;;;;;2.19;56.40;100984.16;10503073;28;20086;-68
2021/03/07 03:36:16;;;;;;;17.27;15.85;;;;;;;2.25;56.24;100989.44;10502905;28;20037;-67
2021/03/07 03:41:20;;;;;;;17.75;16.35;;;;;;;2.23;56.15;100983.38;10503522;28;20394;-68
2021/03/07 03:46:32;;;;;;;17.42;15.93;;;;;;;2.22;55.91;100973.84;10502931;28;20063;-68
2021/03/07 03:51:36;;;;;;;17.02;15.63;;;;;;;2.20;55.55;100972.06;10501853;28;20057;-67
2021/03/07 03:56:39;;;;;;;19.08;17.58;;;;;;;2.14;55.87;100979.75;10503108;28;20044;-67
2021/03/07 04:01:41;;;;;;;17.73;16.25;;;;;;;2.10;56.03;100965.84;10512013;28;20068;-67
2021/03/07 04:06:44;;;;;;;17.20;15.90;;;;;;;2.07;55.73;100965.78;10516633;28;20071;-68
2021/03/07 04:11:46;;;;;;;17.95;16.35;;;;;;;2.09;55.66;100958.94;10516178;28;20045;-67
2021/03/07 04:16:50;;;;;;;16.45;15.15;;;;;;;2.01;55.72;100963.97;10516230;28;20127;-68
2021/03/07 04:21:53;;;;;;;16.13;14.73;;;;;;;1.97;55.81;100950.91;10498273;28;20143;-68
2021/03/07 04:26:57;;;;;;;16.08;14.57;;;;;;;1.91;56.06;100951.69;10516392;28;20070;-68
2021/03/07 04:31:59;;;;;;;14.95;13.65;;;;;;;1.89;55.71;100940.41;10516723;28;20063;-67
2021/03/07 04:37:01;;;;;;;15.93;14.55;;;;;;;1.88;55.85;100946.44;10498871;28;20119;-67
2021/03/07 04:42:04;;;;;;;14.57;13.48;;;;;;;1.85;55.74;100941.19;10515254;28;20052;-67
2021/03/07 04:47:12;;;;;;;14.43;13.13;;;;;;;1.79;55.83;100932.44;10515121;28;20086;-67
2021/03/07 04:52:14;;;;;;;13.90;12.55;;;;;;;1.75;56.13;100931.50;10497378;28;20059;-68
2021/03/07 04:57:16;;;;;;;13.73;12.52;;;;;;;1.71;55.99;100925.38;10516446;28;20072;-69
2021/03/07 05:02:17;;;;;;;13.65;12.55;;;;;;;1.62;55.98;100919.16;10515740;28;20040;-68
2021/03/07 05:07:19;;;;;;;12.70;11.55;;;;;;;1.63;55.86;100916.59;10494950;28;20041;-67
2021/03/07 05:12:20;;;;;;;11.85;10.85;;;;;;;1.59;56.22;100926.88;10508588;28;20040;-67
2021/03/07 05:17:36;;;;;;;11.90;10.90;;;;;;;1.48;56.45;100919.78;10506191;28;20040;-67
2021/03/07 05:22:38;;;;;;;14.98;10.45;;;;;;;1.36;56.31;100910.91;10506715;28;20047;-67
2021/03/07 05:27:39;;;;;;;10.57;9.65;;;;;;;1.37;56.68;100917.81;10506852;28;20082;-67
2021/03/07 05:32:41;;;;;;;9.77;8.70;;;;;;;1.33;57.13;100913.41;10509622;28;20044;-66
2021/03/07 05:37:42;;;;;;;9.32;8.50;;;;;;;1.26;57.01;100907.25;10514177;28;20055;-66
2021/03/07 05:42:44;;;;;;;9.45;8.60;;;;;;;1.26;57.24;100905.53;10496027;28;20087;-66
2021/03/07 05:47:58;;;;;;;8.73;7.85;;;;;;;1.27;57.09;100898.63;10513398;28;20057;-66
2021/03/07 05:53:00;;;;;;;8.10;7.40;;;;;;;1.39;56.61;100898.00;10514050;28;20096;-66
2021/03/07 05:58:02;;;;;;;9.40;7.97;;;;;;;1.34;56.90;100900.50;10512840;28;20032;-66
2021/03/07 06:03:06;;;;;;;9.50;8.18;;;;;;;1.36;56.75;100888.44;10512438;28;20040;-65
2021/03/07 06:08:07;;;;;;;8.13;6.93;;;;;;;1.43;56.60;100885.16;10512318;28;20045;-66
2021/03/07 06:13:12;;;;;;;7.78;7.00;;;;;;;1.48;56.42;100887.81;10512128;28;20136;-66
2021/03/07 06:18:23;;;;;;;7.32;6.72;;;;;;;1.46;56.29;100887.81;10510648;28;20051;-66
2021/03/07 06:23:36;;;;;;;7.00;6.30;;;;;;;1.48;56.38;100886.09;10511143;28;20056;-65
2021/03/07 06:28:38;;;;;;;6.80;6.10;;;;;;;1.50;56.36;100875.75;10494363;28;20044;-67
2021/03/07 06:33:39;;;;;;;6.35;5.68;;;;;;;1.49;56.33;100877.47;10511193;28;20482;-66
2021/03/07 06:38:45;;;;;;;6.50;5.38;;;;;;;1.60;55.87;100876.81;10511153;28;20048;-67
2021/03/07 06:43:47;;;;;;;5.18;4.47;;;;;;;1.60;55.97;100882.00;10511551;28;20056;-67
2021/03/07 06:48:49;;;;;;;6.03;4.80;;;;;;;1.71;55.34;100873.56;10510861;28;20098;-67
2021/03/07 06:53:50;;;;;;;5.45;4.65;;;;;;;1.68;55.40;100883.88;10509531;28;20044;-67
2021/03/07 06:59:17;;;;;;;6.90;5.40;;;;;;;1.72;55.50;100883.06;10509934;28;20049;-66
2021/03/07 07:04:19;;;;;;;5.35;3.95;;;;;;;1.86;54.88;100875.56;10509890;28;20114;-66
2021/03/07 07:09:24;;;;;;;5.10;4.32;;;;;;;1.97;55.14;100875.72;10509072;28;20044;-67
2021/03/07 07:14:42;;;;;;;5.13;4.40;;;;;;;2.07;54.68;100874.16;10490976;28;20463;-67
2021/03/07 07:19:45;;;;;;;5.45;4.35;;;;;;;2.21;54.48;100878.72;10509829;28;20052;-68
2021/03/07 07:24:46;;;;;;;5.03;4.53;;;;;;;2.29;54.21;100871.03;10510015;28;20078;-67
2021/03/07 07:29:47;;;;;;;5.15;4.20;;;;;;;2.39;53.71;100870.34;10490981;28;20044;-66
2021/03/07 07:34:52;;;;;;;6.35;4.88;;;;;;;2.46;53.92;100872.16;10509363;28;20044;-67
2021/03/07 07:39:55;;;;;;;6.35;5.40;;;;;;;2.62;53.52;100872.41;10515703;22;20094;-65
2021/03/07 07:44:59;;;;;;;7.57;5.15;;;;;;;2.59;53.63;100873.22;10480513;28;20120;-65
2021/03/07 07:50:00;;;;;;;6.47;5.68;;;;;;;2.67;53.70;100870.72;10480643;28;20140;-67
2021/03/07 07:55:09;;;;;;;7.07;5.55;;;;;;;2.89;53.39;100869.28;10480609;28;20409;-64
2021/03/07 08:00:16;;;;;;;6.50;5.78;;;;;;;2.89;53.54;100871.91;10480831;28;20040;-66
2021/03/07 08:05:20;;;;;;;11.48;6.80;;;;;;;2.96;52.52;100868.50;10480578;28;20098;-65
2021/03/07 08:10:40;;;;;;;9.77;6.70;;;;;;;2.87;53.15;100861.47;10499197;28;20094;-66
2021/03/07 08:15:50;;;;;;;6.80;6.22;;;;;;;2.91;52.40;100854.59;10498972;28;20063;-65
2021/03/07 08:20:51;;;;;;;6.90;6.30;;;;;;;3.04;53.44;100857.34;10480119;28;20139;-66
2021/03/07 08:25:53;;;;;;;7.40;6.20;;;;;;;3.22;52.58;100863.63;10480025;28;20128;-65
2021/03/07 08:31:04;;;;;;;6.82;6.13;;;;;;;3.22;52.51;100858.44;10499227;28;20399;-65
2021/03/07 08:36:09;;;;;;;8.65;7.88;;;;;;;3.13;52.41;100855.72;10497503;28;20401;-65
2021/03/07 08:41:11;;;;;;;7.28;6.57;;;;;;;3.23;52.54;100858.47;10496662;28;20040;-63
2021/03/07 08:46:14;;;;;;;6.82;5.45;;;;;;;3.15;52.60;100852.31;10499078;28;20143;-64
2021/03/07 08:51:17;;;;;;;6.65;5.65;;;;;;;2.91;54.29;100852.88;10488199;28;20350;-64
2021/03/07 08:56:25;;;;;;;5.72;5.18;;;;;;;3.15;52.60;100844.50;10503899;28;20086;-65
2021/03/07 09:01:26;;;;;;;8.05;4.85;;;;;;;3.28;52.71;100841.19;10487326;28;20072;-64
2021/03/07 09:06:33;;;;;;;6.43;4.28;;;;;;;3.21;52.67;100836.78;10503923;28;20444;-64
2021/03/07 09:11:37;;;;;;;4.00;3.60;;;;;;;3.26;52.29;100837.69;10504091;28;20047;-63
2021/03/07 09:16:48;;;;;;;6.80;4.32;;;;;;;3.20;52.18;100837.63;10503528;28;20504;-66
2021/03/07 09:22:08;;;;;;;4.80;4.20;;;;;;;3.06;53.67;100834.00;10503057;28;20044;-63
2021/03/07 09:27:13;;;;;;;5.55;3.78;;;;;;;3.25;52.78;100832.50;10504234;28;20060;-64
2021/03/07 09:32:26;;;;;;;4.75;4.05;;;;;;;3.15;53.36;100828.06;10502600;28;20044;-65
2021/03/07 09:37:28;;;;;;;4.15;3.75;;;;;;;3.18;53.34;100831.53;10503014;28;20501;-64
2021/03/07 09:42:29;;;;;;;5.30;4.78;;;;;;;3.27;53.62;100829.03;10502438;28;20048;-65
2021/03/07 09:47:31;;;;;;;8.75;3.70;;;;;;;3.38;53.15;100821.38;10484354;28;20071;-64
2021/03/07 09:52:33;;;;;;;5.40;3.95;;;;;;;3.46;53.51;100824.91;10502542;28;20390;-64
2021/03/07 09:57:34;;;;;;;3.03;2.70;;;;;;;3.60;52.98;100824.19;10501829;28;20052;-64
2021/03/07 10:02:36;;;;;;;4.13;3.72;;;;;;;3.49;54.13;100827.53;10502302;28;20135;-64
2021/03/07 10:07:38;;;;;;;3.55;3.10;;;;;;;3.66;53.07;100816.41;10501353;28;20044;-64
2021/03/07 10:12:54;;;;;;;3.97;3.47;;;;;;;3.72;53.15;100824.28;10500979;28;20082;-65
2021/03/07 10:18:16;;;;;;;4.28;3.65;;;;;;;3.54;53.97;100832.75;10501526;28;20033;-65
2021/03/07 10:23:18;;;;;;;4.93;3.58;;;;;;;3.55;53.87;100826.72;10500718;28;20173;-65
2021/03/07 10:28:24;;;;;;;8.20;4.32;;;;;;;3.57;54.22;100818.94;10501055;28;20083;-63
2021/03/07 10:33:29;;;;;;;4.50;4.15;;;;;;;3.60;54.18;100805.97;10502314;28;20090;-64
2021/03/07 10:38:33;;;;;;;5.25;4.32;;;;;;;3.71;54.70;100806.94;10500622;28;20119;-64
2021/03/07 10:43:50;;;;;;;4.45;4.05;;;;;;;3.72;54.05;100813.88;10482726;28;20075;-64
2021/03/07 10:48:53;;;;;;;5.20;4.70;;;;;;;3.76;54.78;100802.63;10484361;28;20041;-66
2021/03/07 10:53:55;;;;;;;4.80;4.28;;;;;;;3.92;54.37;100804.50;10483395;28;20391;-66
2021/03/07 10:58:57;;;;;;;14.98;4.53;;;;;;;3.70;54.16;100780.06;10500835;28;20052;-64
2021/03/07 11:03:59;;;;;;;4.35;3.95;;;;;;;4.08;53.62;100789.03;10499832;28;20045;-66
2021/03/07 11:09:00;;;;;;;3.38;3.08;;;;;;;4.15;52.74;100785.56;10499143;28;20421;-66
2021/03/07 11:14:01;;;;;;;5.35;4.20;;;;;;;4.21;52.98;100772.63;10499544;28;20041;-65
2021/03/07 11:19:03;;;;;;;3.85;3.20;;;;;;;4.17;52.77;100771.72;10481578;28;20045;-66
2021/03/07 11:24:04;;;;;;;4.53;4.13;;;;;;;3.76;54.30;100764.53;10498933;28;20040;-64
2021/03/07 11:29:06;;;;;;;4.93;4.53;;;;;;;4.34;53.54;100755.31;10463781;28;20520;-64
2021/03/07 11:34:07;;;;;;;4.35;3.95;;;;;;;4.14;53.74;100753.50;10480056;28;20057;-65
2021/03/07 11:39:08;;;;;;;4.30;3.90;;;;;;;4.33;53.74;100753.59;10497729;28;20044;-65
2021/03/07 11:44:09;;;;;;;4.97;4.47;;;;;;;4.47;53.02;100738.88;10498238;28;20124;-64
2021/03/07 11:49:10;;;;;;;11.93;4.22;;;;;;;4.47;52.70;100731.09;10483047;28;20033;-66
2021/03/07 11:54:12;;;;;;;5.68;5.18;;;;;;;4.71;52.28;100725.97;10489449;28;20051;-66
2021/03/07 11:59:13;;;;;;;5.38;4.97;;;;;;;4.62;51.87;100709.47;10481106;28;20045;-65
2021/03/07 12:04:15;;;;;;;5.63;5.13;;;;;;;4.72;53.23;100706.00;10488481;28;20163;-66
2021/03/07 12:09:16;;;;;;;6.20;5.60;;;;;;;4.35;53.38;100698.09;10456732;28;20072;-65
2021/03/07 12:14:18;;;;;;;5.43;4.95;;;;;;;4.25;53.21;100689.38;10456297;28;20041;-66
2021/03/07 12:19:19;;;;;;;5.78;4.95;;;;;;;4.25;53.09;100680.66;10438167;28;20162;-65
2021/03/07 12:24:20;;;;;;;5.78;5.07;;;;;;;4.38;53.16;100689.41;10464443;28;20494;-66
2021/03/07 12:29:21;;;;;;;4.78;4.38;;;;;;;4.34;51.98;100674.63;10463954;28;20073;-66
2021/03/07 12:34:23;;;;;;;5.53;4.75;;;;;;;4.13;53.01;100667.63;10463774;28;20041;-66
2021/03/07 12:39:24;;;;;;;4.70;4.30;;;;;;;4.38;52.02;100663.38;10445810;28;20044;-66
2021/03/07 12:44:25;;;;;;;4.15;3.85;;;;;;;4.64;51.89;100655.63;10463856;28;20068;-65
2021/03/07 12:49:26;;;;;;;4.90;4.50;;;;;;;4.64;52.56;100635.66;10445014;28;20041;-66
2021/03/07 12:54:28;;;;;;;5.90;5.40;;;;;;;4.41;53.10;100627.81;10463444;28;20037;-66
2021/03/07 12:59:29;;;;;;;5.95;5.45;;;;;;;4.77;52.96;100605.31;10463310;28;20455;-66
2021/03/07 13:04:31;;;;;;;6.13;5.53;;;;;;;4.58;52.49;100583.59;10477246;28;20037;-66
2021/03/07 13:09:32;;;;;;;5.25;4.85;;;;;;;5.00;51.14;100574.94;10504362;28;20048;-66
2021/03/07 13:14:34;;;;;;;5.15;4.85;;;;;;;5.11;50.13;100574.06;10504317;28;20041;-66
2021/03/07 13:19:36;;;;;;;5.50;5.10;;;;;;;4.70;49.75;100567.13;10463800;28;20470;-65
2021/03/07 13:24:37;;;;;;;5.70;5.30;;;;;;;4.34;50.43;100568.81;10462378;28;20502;-65
2021/03/07 13:29:39;;;;;;;6.20;5.80;;;;;;;4.38;50.93;100556.66;10461768;28;20548;-66
2021/03/07 13:34:40;;;;;;;5.63;5.13;;;;;;;4.90;49.79;100535.84;10466082;28;20063;-66
2021/03/07 13:40:14;;;;;;;6.53;6.07;;;;;;;4.96;49.05;100530.66;10485510;28;20040;-67
2021/03/07 13:45:15;;;;;;;8.75;8.05;;;;;;;5.02;50.17;100517.63;10336640;28;20051;-65
2021/03/07 13:50:18;;;;;;;9.18;8.48;;;;;;;5.20;50.62;100514.97;10342960;28;20146;-65
2021/03/07 13:55:19;;;;;;;8.90;8.02;;;;;;;5.16;49.61;100495.00;10326149;28;20508;-66
2021/03/07 14:00:21;;;;;;;9.25;8.65;;;;;;;5.11;50.08;100494.16;10343329;28;20046;-65
2021/03/07 14:05:24;;;;;;;9.43;8.73;;;;;;;5.07;49.60;100490.69;10343076;28;20046;-64
2021/03/07 14:10:25;;;;;;;9.10;8.40;;;;;;;4.96;50.56;100478.56;10320917;28;20137;-66
2021/03/07 14:15:26;;;;;;;8.68;8.07;;;;;;;4.91;50.28;100470.72;10341349;28;20046;-66
2021/03/07 14:20:28;;;;;;;8.23;7.63;;;;;;;5.01;50.31;100467.25;10342336;28;20056;-65
2021/03/07 14:25:29;;;;;;;8.63;8.02;;;;;;;4.74;50.74;100462.09;10341842;28;20050;-66
2021/03/07 14:30:31;;;;;;;9.88;9.27;;;;;;;4.62;51.20;100464.69;10341176;28;20078;-66
2021/03/07 14:35:32;;;;;;;9.82;9.13;;;;;;;4.65;51.21;100447.34;10339250;28;20042;-66
2021/03/07 14:40:34;;;;;;;10.13;9.43;;;;;;;4.83;50.78;100445.59;10339614;28;20050;-65
2021/03/07 14:45:36;;;;;;;9.07;8.48;;;;;;;4.99;50.64;100439.44;10339123;28;20076;-66
2021/03/07 14:50:38;;;;;;;8.77;8.18;;;;;;;4.87;51.32;100429.94;10338477;28;20061;-64
2021/03/07 14:55:39;;;;;;;9.77;9.10;;;;;;;4.85;51.66;100426.47;10339073;28;20073;-65
2021/03/07 15:00:40;;;;;;;10.38;9.55;;;;;;;4.81;51.09;100429.94;10338817;28;20563;-66
2021/03/07 15:05:42;;;;;;;10.07;9.38;;;;;;;4.94;50.55;100422.97;10336903;28;20060;-67
2021/03/07 15:10:43;;;;;;;10.43;9.73;;;;;;;4.76;50.83;100418.66;10337720;28;20046;-64
2021/03/07 15:15:45;;;;;;;11.30;10.20;;;;;;;4.52;51.47;100412.66;10338800;28;20046;-66
2021/03/07 15:20:46;;;;;;;9.98;9.27;;;;;;;4.19;52.34;100413.50;10338107;28;20522;-66
2021/03/07 15:25:47;;;;;;;10.38;9.77;;;;;;;4.38;51.71;100411.75;10337996;28;20073;-65
2021/03/07 15:30:48;;;;;;;10.93;10.13;;;;;;;4.39;52.07;100405.72;10337449;28;20053;-65
2021/03/07 15:35:49;;;;;;;10.90;10.13;;;;;;;4.32;52.31;100398.75;10337829;28;20046;-65
2021/03/07 15:40:51;;;;;;;11.80;10.85;;;;;;;4.13;52.29;100389.25;10337589;28;20452;-65
2021/03/07 15:45:53;;;;;;;12.02;11.07;;;;;;;4.13;52.72;100390.09;10336704;28;20049;-66
2021/03/07 15:50:55;;;;;;;9.90;9.20;;;;;;;4.11;52.82;100394.41;10335639;28;20043;-66
2021/03/07 15:55:56;;;;;;;6.07;5.53;;;;;;;3.65;54.21;100383.13;10335021;28;20038;-65
2021/03/07 16:00:57;;;;;;;5.88;5.38;;;;;;;3.52;54.73;100387.41;10335899;28;20049;-66
2021/03/07 16:05:59;;;;;;;4.90;4.40;;;;;;;3.46;54.69;100384.81;10336305;28;20577;-65
2021/03/07 16:11:00;;;;;;;5.22;4.43;;;;;;;3.28;55.00;100390.81;10319484;28;20411;-66
2021/03/07 16:16:06;;;;;;;7.70;4.53;;;;;;;3.27;54.77;100400.31;10335222;28;20047;-65
2021/03/07 16:21:08;;;;;;;8.32;5.40;;;;;;;3.22;55.02;100406.38;10327715;28;20431;-65
2021/03/07 16:26:09;;;;;;;4.40;4.03;;;;;;;3.19;54.72;100401.19;10336540;28;20047;-65
2021/03/07 16:31:11;;;;;;;4.57;4.15;;;;;;;3.05;54.99;100401.09;10335641;28;20515;-65
2021/03/07 16:36:12;;;;;;;3.42;3.13;;;;;;;3.02;54.50;100408.91;10334085;28;20045;-66
2021/03/07 16:41:13;;;;;;;3.90;3.50;;;;;;;2.92;54.91;100404.50;10334592;28;20050;-65
2021/03/07 16:46:15;;;;;;;4.07;3.67;;;;;;;2.88;55.17;100408.81;10335213;28;20463;-65
2021/03/07 16:51:19;;;;;;;4.22;3.90;;;;;;;2.85;54.62;100414.00;10334794;28;20446;-66
2021/03/07 16:56:20;;;;;;;4.05;3.67;;;;;;;2.73;54.88;100419.09;10334554;28;20030;-65
2021/03/07 17:01:21;;;;;;;4.32;3.42;;;;;;;2.64;54.72;100413.84;10333977;28;20050;-66
2021/03/07 17:06:22;;;;;;;3.65;3.00;;;;;;;2.59;54.35;100423.34;10335015;28;20054;-65
2021/03/07 17:11:24;;;;;;;4.07;3.20;;;;;;;2.40;54.76;100425.81;10341195;28;20050;-66
2021/03/07 17:16:26;;;;;;;5.82;4.10;;;;;;;2.45;54.77;100429.31;10339924;28;20058;-65
2021/03/07 17:21:27;;;;;;;6.10;4.25;;;;;;;2.42;54.95;100421.50;10324721;28;20050;-65
2021/03/07 17:26:29;;;;;;;3.65;3.28;;;;;;;2.43;54.93;100435.31;10342063;28;20030;-64
2021/03/07 17:31:30;;;;;;;3.50;3.15;;;;;;;2.37;55.16;100435.28;10341212;28;20484;-65
2021/03/07 17:36:32;;;;;;;4.22;3.55;;;;;;;2.12;55.73;100435.06;10339298;28;20073;-66
2021/03/07 17:41:34;;;;;;;4.22;3.83;;;;;;;2.30;55.22;100436.94;10341043;28;20046;-66
2021/03/07 17:46:36;;;;;;;3.88;3.58;;;;;;;2.19;55.66;100447.25;10341048;28;20042;-65
2021/03/07 17:51:37;;;;;;;5.10;4.60;;;;;;;2.07;56.19;100448.84;10324029;28;20050;-65
2021/03/07 17:56:47;;;;;;;5.30;4.82;;;;;;;2.02;56.49;100436.72;10340438;28;20100;-66
2021/03/07 18:01:49;;;;;;;6.13;4.13;;;;;;;2.06;56.21;100441.94;10339898;28;20042;-65
2021/03/07 18:06:50;;;;;;;5.50;4.78;;;;;;;1.91;56.94;100458.22;10340289;28;20411;-66
2021/03/07 18:11:51;;;;;;;5.47;4.97;;;;;;;1.81;57.13;100457.25;10321939;28;20051;-66
2021/03/07 18:16:53;;;;;;;7.20;6.60;;;;;;;2.40;55.51;100449.16;10339704;28;20071;-65
2021/03/07 18:21:54;;;;;;;5.20;4.65;;;;;;;2.21;56.08;100457.63;10340169;28;20049;-66
2021/03/07 18:27:09;;;;;;;7.75;4.50;;;;;;;2.42;55.20;100459.53;10340066;28;20126;-66
2021/03/07 18:32:10;;;;;;;5.80;4.68;;;;;;;2.36;55.73;100457.78;10339335;28;20046;-66
2021/03/07 18:37:13;;;;;;;5.50;5.10;;;;;;;2.37;55.31;100453.44;10340507;28;20042;-67
2021/03/07 18:42:20;;;;;;;6.47;5.47;;;;;;;2.34;55.59;100451.69;10339778;28;20046;-67
2021/03/07 18:47:24;;;;;;;5.85;5.35;;;;;;;2.24;56.10;100455.94;10321751;28;20046;-66
2021/03/07 18:52:27;;;;;;;5.00;4.50;;;;;;;2.29;55.90;100448.19;10339426;28;20073;-67
2021/03/07 18:57:34;;;;;;;6.10;4.35;;;;;;;2.17;56.33;100438.59;10336398;28;20140;-67
2021/03/07 19:02:36;;;;;;;4.75;4.35;;;;;;;1.99;57.22;100436.72;10323502;28;20053;-67
2021/03/07 19:07:58;;;;;;;5.50;5.00;;;;;;;1.82;57.56;100440.00;10340926;28;20046;-67
2021/03/07 19:13:14;;;;;;;6.87;5.60;;;;;;;1.96;56.99;100425.44;10340042;28;20050;-67
2021/03/07 19:18:19;;;;;;;5.53;5.03;;;;;;;1.77;57.50;100414.00;10339675;28;20050;-67
2021/03/07 19:23:21;;;;;;;5.55;5.07;;;;;;;1.67;57.86;100418.22;10340848;28;20050;-66
2021/03/07 19:28:23;;;;;;;6.60;6.03;;;;;;;1.57;58.42;100412.94;10325149;28;20043;-68
2021/03/07 19:33:25;;;;;;;6.78;6.10;;;;;;;1.47;58.69;100417.16;10341362;28;20053;-67
2021/03/07 19:38:33;;;;;;;7.00;6.30;;;;;;;1.32;59.26;100414.38;10341885;28;20054;-69
2021/03/07 19:43:51;;;;;;;6.25;5.75;;;;;;;1.33;59.18;100414.41;10342029;28;20077;-67
2021/03/07 19:49:00;;;;;;;7.13;6.53;;;;;;;1.43;59.17;100413.66;10340014;28;20527;-67
2021/03/07 19:54:02;;;;;;;7.20;6.50;;;;;;;1.46;59.07;100418.88;10340896;28;20070;-68
2021/03/07 19:59:04;;;;;;;6.85;6.30;;;;;;;1.50;59.04;100423.22;10324696;28;20042;-67
2021/03/07 20:04:16;;;;;;;6.82;6.03;;;;;;;1.25;60.04;100416.03;10325998;28;20050;-66
2021/03/07 20:09:33;;;;;;;7.85;7.13;;;;;;;1.28;59.95;100423.81;10325115;28;20062;-67
2021/03/07 20:14:36;;;;;;;8.75;8.00;;;;;;;1.26;60.19;100417.78;10341096;28;20049;-68
2021/03/07 20:19:38;;;;;;;8.15;7.45;;;;;;;1.36;59.64;100419.59;10340285;28;20053;-67
2021/03/07 20:24:40;;;;;;;9.40;8.50;;;;;;;1.46;59.53;100431.84;10339207;28;20058;-67
2021/03/07 20:29:44;;;;;;;8.38;7.57;;;;;;;1.75;58.96;100418.31;10339868;28;20411;-67
2021/03/07 20:34:47;;;;;;;8.48;7.65;;;;;;;1.65;58.82;100412.16;10323037;28;20046;-66
2021/03/07 20:39:54;;;;;;;;;;;;;;;1.77;58.44;100408.81;10323031;28;20050;-65
2021/03/07 20:45:05;;;;;;;5.63;5.13;;;;;;;1.80;58.48;100411.44;10348154;28;19921;-67
2021/03/07 20:50:08;;;;;;;7.90;7.30;;;;;;;1.80;58.58;100402.81;10346187;28;20137;-67
2021/03/07 20:55:12;;;;;;;7.63;7.03;;;;;;;1.54;59.35;100429.31;10330474;28;20061;-67
2021/03/07 21:00:15;;;;;;;6.80;6.20;;;;;;;1.88;57.80;100422.75;10330590;28;20065;-66
2021/03/07 21:05:19;;;;;;;7.03;6.40;;;;;;;1.75;58.71;100426.09;10346550;28;20138;-68
2021/03/07 21:10:21;;;;;;;6.65;5.93;;;;;;;1.86;58.48;100424.50;10346725;28;20412;-66
2021/03/07 21:15:22;;;;;;;6.93;6.43;;;;;;;1.90;58.22;100415.00;10328923;28;20563;-66
2021/03/07 21:20:23;;;;;;;7.57;6.93;;;;;;;1.82;58.43;100414.94;10330048;28;20053;-66
2021/03/07 21:25:25;;;;;;;7.28;6.63;;;;;;;1.75;58.67;100405.34;10345696;28;20129;-66
2021/03/07 21:30:26;;;;;;;8.00;6.95;;;;;;;1.79;58.86;100404.53;10344983;28;20504;-68
2021/03/07 21:35:28;;;;;;;7.47;6.78;;;;;;;1.84;58.44;100402.84;10345978;28;20073;-66
2021/03/07 21:40:30;;;;;;;7.07;6.57;;;;;;;1.95;58.28;100409.03;10345033;28;20105;-67
2021/03/07 21:45:31;;;;;;;7.32;6.63;;;;;;;1.64;59.24;100399.19;10344475;28;20046;-67
2021/03/07 21:50:33;;;;;;;7.30;6.70;;;;;;;1.81;58.62;100396.75;10345606;28;20118;-67
2021/03/07 21:55:34;;;;;;;7.03;6.43;;;;;;;1.82;58.65;100399.38;10344123;28;20035;-67
2021/03/07 22:00:35;;;;;;;6.97;6.30;;;;;;;1.83;58.40;100395.94;10343412;28;20070;-67
2021/03/07 22:05:37;;;;;;;7.07;6.47;;;;;;;1.68;58.81;100390.59;10344537;28;20042;-67
2021/03/07 22:10:38;;;;;;;10.77;7.15;;;;;;;1.79;58.63;100382.94;10343232;28;20047;-66
2021/03/07 22:16:06;;;;;;;6.68;6.18;;;;;;;1.89;58.35;100397.72;10341245;28;20050;-66
2021/03/07 22:21:07;;;;;;;6.90;6.30;;;;;;;1.86;58.50;100389.88;10344183;28;20092;-67
2021/03/07 22:26:14;;;;;;;6.80;5.90;;;;;;;1.75;58.78;100390.66;10327460;28;20489;-68
2021/03/07 22:31:15;;;;;;;6.40;5.90;;;;;;;1.57;59.11;100387.03;10344010;28;20042;-65
2021/03/07 22:36:16;;;;;;;7.07;6.50;;;;;;;1.87;58.42;100386.47;10343240;28;20062;-67
2021/03/07 22:41:18;;;;;;;5.97;5.47;;;;;;;1.86;58.10;100382.13;10342615;28;20050;-67
2021/03/07 22:46:19;;;;;;;6.90;6.28;;;;;;;1.82;58.36;100377.78;10342538;28;20046;-67
2021/03/07 22:51:20;;;;;;;6.70;6.07;;;;;;;1.58;59.21;100371.50;10341232;28;20060;-66
2021/03/07 22:56:22;;;;;;;6.25;5.60;;;;;;;1.79;58.33;100370.84;10325864;28;20058;-67
2021/03/07 23:01:23;;;;;;;6.60;5.80;;;;;;;1.71;59.11;100365.56;10342186;28;20046;-67
2021/03/07 23:06:25;;;;;;;6.28;5.70;;;;;;;1.80;58.67;100364.78;10341263;28;20458;-66
2021/03/07 23:11:26;;;;;;;6.28;5.75;;;;;;;1.62;59.36;100360.31;10340067;28;20046;-67
2021/03/07 23:16:27;;;;;;;6.95;6.28;;;;;;;1.74;58.86;100360.44;10340715;28;20069;-65
2021/03/07 23:21:29;;;;;;;6.43;5.85;;;;;;;1.74;59.04;100356.97;10341026;28;20125;-66
2021/03/07 23:26:30;;;;;;;6.85;6.25;;;;;;;1.83;58.79;100343.22;10340228;28;20054;-67